createdAt,value
2017-03-24T00:00:50.274Z,16.67
2017-03-24T00:01:59.130Z,16.77
2017-03-24T00:03:07.997Z,16.77
2017-03-24T00:04:16.869Z,16.65
2017-03-24T00:05:26.056Z,16.6
2017-03-24T00:06:34.917Z,16.65
2017-03-24T00:07:44.098Z,16.53
2017-03-24T00:08:53.277Z,16.53
2017-03-24T00:10:02.147Z,16.59
2017-03-24T00:11:10.997Z,16.6
2017-03-24T00:12:19.908Z,16.5
2017-03-24T00:13:28.775Z,16.5
2017-03-24T00:14:37.954Z,16.41
2017-03-24T00:15:46.807Z,16.5
2017-03-24T00:16:55.675Z,16.58
2017-03-24T00:18:04.526Z,16.55
2017-03-24T00:19:13.392Z,16.58
2017-03-24T00:20:22.253Z,16.47
2017-03-24T00:21:31.114Z,16.45
2017-03-24T00:22:39.974Z,16.59
2017-03-24T00:23:48.840Z,16.59
2017-03-24T00:24:57.703Z,16.6
2017-03-24T00:26:06.570Z,16.56
2017-03-24T00:27:15.435Z,16.56
2017-03-24T00:28:24.342Z,16.42
2017-03-24T00:29:33.210Z,16.53
2017-03-24T00:30:42.077Z,16.41
2017-03-24T00:31:50.932Z,16.47
2017-03-24T00:32:59.810Z,16.44
2017-03-24T00:34:08.991Z,16.53
2017-03-24T00:35:17.844Z,16.4
2017-03-24T00:36:26.698Z,16.4
2017-03-24T00:37:35.552Z,16.52
2017-03-24T00:38:44.418Z,16.35
2017-03-24T00:39:53.285Z,16.38
2017-03-24T00:41:02.147Z,16.38
2017-03-24T00:42:11.004Z,16.34
2017-03-24T00:43:19.863Z,16.29
2017-03-24T00:44:28.737Z,16.34
2017-03-24T00:45:37.594Z,16.27
2017-03-24T00:46:46.454Z,16.27
2017-03-24T00:47:55.315Z,16.32
2017-03-24T00:49:04.185Z,16.37
2017-03-24T00:50:13.051Z,16.22
2017-03-24T00:51:21.912Z,16.35
2017-03-24T00:52:30.769Z,16.29
2017-03-24T00:53:39.669Z,16.18
2017-03-24T00:54:48.534Z,16.25
2017-03-24T00:55:57.397Z,16.23
2017-03-24T00:57:06.259Z,16.26
2017-03-24T00:58:15.115Z,16.2
2017-03-24T00:59:24.040Z,16.26
2017-03-24T01:00:33.263Z,16.15
2017-03-24T01:01:42.439Z,16.15
2017-03-24T01:02:51.303Z,16.04
2017-03-24T01:04:00.177Z,16.04
2017-03-24T01:05:09.046Z,16.07
2017-03-24T01:06:17.904Z,16.09
2017-03-24T01:07:26.759Z,15.99
2017-03-24T01:08:35.632Z,16.04
2017-03-24T01:09:44.812Z,15.92
2017-03-24T01:10:53.678Z,15.97
2017-03-24T01:12:02.539Z,16.01
2017-03-24T01:13:11.398Z,16.03
2017-03-24T01:14:20.267Z,16.01
2017-03-24T01:15:29.130Z,15.92
2017-03-24T01:16:37.985Z,15.88
2017-03-24T01:17:46.849Z,15.92
2017-03-24T01:18:55.713Z,15.91
2017-03-24T01:20:04.573Z,15.97
2017-03-24T01:21:13.429Z,15.92
2017-03-24T01:22:22.603Z,15.85
2017-03-24T01:23:31.466Z,15.82
2017-03-24T01:24:40.335Z,15.79
2017-03-24T01:25:49.518Z,15.84
2017-03-24T01:26:58.388Z,15.78
2017-03-24T01:28:07.247Z,15.81
2017-03-24T01:29:16.107Z,15.78
2017-03-24T01:30:24.973Z,15.78
2017-03-24T01:31:33.833Z,15.78
2017-03-24T01:32:43.012Z,15.78
2017-03-24T01:33:51.878Z,15.74
2017-03-24T01:35:00.748Z,15.67
2017-03-24T01:36:09.606Z,15.74
2017-03-24T01:37:18.465Z,15.7
2017-03-24T01:38:27.323Z,15.52
2017-03-24T01:39:36.200Z,15.48
2017-03-24T01:40:45.052Z,15.53
2017-03-24T01:41:53.913Z,15.56
2017-03-24T01:43:02.770Z,15.56
2017-03-24T01:44:11.625Z,15.66
2017-03-24T01:45:20.479Z,15.52
2017-03-24T01:46:29.338Z,15.53
2017-03-24T01:47:38.212Z,15.51
2017-03-24T01:48:47.399Z,15.64
2017-03-24T01:49:56.261Z,15.7
2017-03-24T01:51:05.119Z,15.67
2017-03-24T01:52:13.979Z,15.51
2017-03-24T01:53:22.836Z,15.64
2017-03-24T01:54:31.701Z,15.59
2017-03-24T01:55:40.886Z,15.53
2017-03-24T01:56:49.743Z,15.55
2017-03-24T01:57:58.611Z,15.53
2017-03-24T01:59:07.478Z,15.46
2017-03-24T02:00:16.341Z,15.44
2017-03-24T02:01:25.195Z,15.42
2017-03-24T02:02:34.361Z,15.38
2017-03-24T02:03:43.227Z,15.48
2017-03-24T02:04:52.089Z,15.42
2017-03-24T02:06:00.969Z,15.46
2017-03-24T02:07:09.827Z,15.44
2017-03-24T02:08:18.688Z,15.42
2017-03-24T02:09:27.939Z,15.45
2017-03-24T02:10:36.794Z,15.41
2017-03-24T02:11:45.950Z,15.3
2017-03-24T02:12:54.802Z,15.31
2017-03-24T02:14:03.719Z,15.28
2017-03-24T02:15:12.583Z,15.44
2017-03-24T02:16:21.433Z,15.36
2017-03-24T02:17:30.293Z,15.33
2017-03-24T02:18:39.157Z,15.26
2017-03-24T02:19:48.028Z,15.3
2017-03-24T02:20:56.883Z,15.42
2017-03-24T02:22:05.745Z,15.37
2017-03-24T02:23:14.597Z,15.27
2017-03-24T02:24:23.463Z,15.09
2017-03-24T02:25:32.323Z,15.11
2017-03-24T02:26:41.180Z,15.15
2017-03-24T02:27:50.046Z,15.18
2017-03-24T02:28:58.905Z,15.24
2017-03-24T02:30:07.769Z,15.34
2017-03-24T02:31:16.625Z,15.44
2017-03-24T02:32:25.481Z,15.36
2017-03-24T02:33:34.341Z,15.15
2017-03-24T02:34:43.202Z,15.11
2017-03-24T02:35:52.053Z,15.06
2017-03-24T02:37:00.910Z,15.01
2017-03-24T02:38:09.777Z,15.04
2017-03-24T02:39:18.636Z,15.13
2017-03-24T02:40:27.498Z,15.09
2017-03-24T02:41:36.357Z,15.08
2017-03-24T02:42:45.536Z,15.13
2017-03-24T02:43:54.405Z,15.13
2017-03-24T02:45:03.265Z,15.01
2017-03-24T02:46:12.115Z,15.15
2017-03-24T02:47:20.970Z,15.09
2017-03-24T02:48:29.837Z,14.98
2017-03-24T02:49:38.690Z,14.84
2017-03-24T02:50:47.549Z,14.97
2017-03-24T02:51:56.405Z,15.05
2017-03-24T02:53:05.265Z,15.04
2017-03-24T02:54:14.124Z,15.04
2017-03-24T02:55:23.299Z,14.96
2017-03-24T02:56:32.167Z,15.09
2017-03-24T02:57:41.020Z,15.06
2017-03-24T02:58:49.879Z,15.05
2017-03-24T02:59:58.751Z,15.04
2017-03-24T03:01:07.612Z,14.9
2017-03-24T03:02:16.477Z,15.04
2017-03-24T03:03:25.338Z,14.9
2017-03-24T03:04:34.198Z,14.75
2017-03-24T03:05:43.056Z,14.8
2017-03-24T03:06:52.006Z,14.9
2017-03-24T03:08:01.656Z,15.04
2017-03-24T03:09:10.514Z,15.13
2017-03-24T03:10:19.371Z,15.06
2017-03-24T03:11:28.231Z,15.21
2017-03-24T03:12:37.094Z,15.11
2017-03-24T03:13:45.954Z,15.11
2017-03-24T03:14:54.831Z,15.06
2017-03-24T03:16:03.695Z,15.06
2017-03-24T03:17:12.552Z,15.05
2017-03-24T03:18:21.411Z,15.08
2017-03-24T03:19:30.277Z,15.09
2017-03-24T03:20:39.138Z,15.11
2017-03-24T03:21:48.310Z,14.87
2017-03-24T03:22:57.172Z,15.01
2017-03-24T03:24:06.043Z,14.97
2017-03-24T03:25:14.912Z,15.01
2017-03-24T03:26:23.766Z,15
2017-03-24T03:27:32.622Z,14.97
2017-03-24T03:28:41.485Z,14.96
2017-03-24T03:29:50.354Z,14.97
2017-03-24T03:30:59.244Z,14.98
2017-03-24T03:32:08.419Z,15
2017-03-24T03:33:17.275Z,15.06
2017-03-24T03:34:26.138Z,14.93
2017-03-24T03:35:34.994Z,14.94
2017-03-24T03:36:43.852Z,14.93
2017-03-24T03:37:52.708Z,15.01
2017-03-24T03:39:01.569Z,14.94
2017-03-24T03:40:10.432Z,14.8
2017-03-24T03:41:19.308Z,14.84
2017-03-24T03:42:28.167Z,14.87
2017-03-24T03:43:37.025Z,14.86
2017-03-24T03:44:46.205Z,14.75
2017-03-24T03:45:55.073Z,14.84
2017-03-24T03:47:03.934Z,14.9
2017-03-24T03:48:12.787Z,14.68
2017-03-24T03:49:21.645Z,14.54
2017-03-24T03:50:30.826Z,14.57
2017-03-24T03:51:39.679Z,14.67
2017-03-24T03:52:48.542Z,14.56
2017-03-24T03:53:57.415Z,14.57
2017-03-24T03:55:06.268Z,14.59
2017-03-24T03:56:15.129Z,14.56
2017-03-24T03:57:23.987Z,14.59
2017-03-24T03:58:32.849Z,14.62
2017-03-24T03:59:41.716Z,14.65
2017-03-24T04:00:50.574Z,14.67
2017-03-24T04:01:59.434Z,14.59
2017-03-24T04:03:08.293Z,14.47
2017-03-24T04:04:17.162Z,14.56
2017-03-24T04:05:26.076Z,14.62
2017-03-24T04:06:34.933Z,14.46
2017-03-24T04:07:43.793Z,14.56
2017-03-24T04:08:52.654Z,14.53
2017-03-24T04:10:01.515Z,14.53
2017-03-24T04:11:10.377Z,14.68
2017-03-24T04:12:19.240Z,14.62
2017-03-24T04:13:28.092Z,14.68
2017-03-24T04:14:36.952Z,14.59
2017-03-24T04:15:45.806Z,14.63
2017-03-24T04:16:54.664Z,14.53
2017-03-24T04:18:03.521Z,14.7
2017-03-24T04:19:12.403Z,14.57
2017-03-24T04:20:21.261Z,14.52
2017-03-24T04:21:30.123Z,14.37
2017-03-24T04:22:38.976Z,14.31
2017-03-24T04:23:47.836Z,14.22
2017-03-24T04:24:56.705Z,14.26
2017-03-24T04:26:05.564Z,14.32
2017-03-24T04:27:14.415Z,14.22
2017-03-24T04:28:23.280Z,14.1
2017-03-24T04:29:32.139Z,14.2
2017-03-24T04:30:40.992Z,14.19
2017-03-24T04:31:49.853Z,14.13
2017-03-24T04:32:58.716Z,14.26
2017-03-24T04:34:07.579Z,14.32
2017-03-24T04:35:16.440Z,14.23
2017-03-24T04:36:25.293Z,14.22
2017-03-24T04:37:34.146Z,14.28
2017-03-24T04:38:43.007Z,14.12
2017-03-24T04:39:51.872Z,14.17
2017-03-24T04:41:00.728Z,14.04
2017-03-24T04:42:09.582Z,14.09
2017-03-24T04:43:18.443Z,14.13
2017-03-24T04:44:27.305Z,14.09
2017-03-24T04:45:36.159Z,14.19
2017-03-24T04:46:45.009Z,14.1
2017-03-24T04:47:53.873Z,14.06
2017-03-24T04:49:02.732Z,14.09
2017-03-24T04:50:11.594Z,14.12
2017-03-24T04:51:20.453Z,14.1
2017-03-24T04:52:29.315Z,14.09
2017-03-24T04:53:38.179Z,14.16
2017-03-24T04:54:47.030Z,14.06
2017-03-24T04:55:55.885Z,14.06
2017-03-24T04:57:04.743Z,14.01
2017-03-24T04:58:13.602Z,14.01
2017-03-24T04:59:22.464Z,14.1
2017-03-24T05:00:31.328Z,14.06
2017-03-24T05:01:40.188Z,14.01
2017-03-24T05:02:49.040Z,14.12
2017-03-24T05:03:57.914Z,14.06
2017-03-24T05:05:06.763Z,13.99
2017-03-24T05:06:15.629Z,14.04
2017-03-24T05:07:24.486Z,13.99
2017-03-24T05:08:33.344Z,14.1
2017-03-24T05:09:42.202Z,14.04
2017-03-24T05:10:51.070Z,14.13
2017-03-24T05:11:59.923Z,14.1
2017-03-24T05:13:08.783Z,14.02
2017-03-24T05:14:17.969Z,14.01
2017-03-24T05:15:26.825Z,13.99
2017-03-24T05:16:36.008Z,14.09
2017-03-24T05:17:44.863Z,14.04
2017-03-24T05:18:53.727Z,14.2
2017-03-24T05:20:02.592Z,14.04
2017-03-24T05:21:11.443Z,14.2
2017-03-24T05:22:20.305Z,14.09
2017-03-24T05:23:29.168Z,14.06
2017-03-24T05:24:38.025Z,14.05
2017-03-24T05:25:46.879Z,14.05
2017-03-24T05:26:55.732Z,14.09
2017-03-24T05:28:04.589Z,14.16
2017-03-24T05:29:13.459Z,14.06
2017-03-24T05:30:22.315Z,14.06
2017-03-24T05:31:31.179Z,14.13
2017-03-24T05:32:40.037Z,14.19
2017-03-24T05:33:48.897Z,14.05
2017-03-24T05:34:57.761Z,14.12
2017-03-24T05:36:06.635Z,14.06
2017-03-24T05:37:15.502Z,14.06
2017-03-24T05:38:24.362Z,14.09
2017-03-24T05:39:33.234Z,14.05
2017-03-24T05:40:42.486Z,14.12
2017-03-24T05:41:51.456Z,13.98
2017-03-24T05:43:00.397Z,13.98
2017-03-24T05:44:09.252Z,14.09
2017-03-24T05:45:18.391Z,14.04
2017-03-24T05:46:27.244Z,14.09
2017-03-24T05:47:36.121Z,14.09
2017-03-24T05:48:44.979Z,14.22
2017-03-24T05:49:53.848Z,14.23
2017-03-24T05:51:02.709Z,14.17
2017-03-24T05:52:11.564Z,14.17
2017-03-24T05:53:20.417Z,14.19
2017-03-24T05:54:29.276Z,14.16
2017-03-24T05:55:38.134Z,14.13
2017-03-24T05:56:46.983Z,14.06
2017-03-24T05:57:55.857Z,14.1
2017-03-24T05:59:04.715Z,14.09
2017-03-24T06:00:13.565Z,14.12
2017-03-24T06:01:22.421Z,14.09
2017-03-24T06:02:31.278Z,14.09
2017-03-24T06:03:40.139Z,14.13
2017-03-24T06:04:48.996Z,14.24
2017-03-24T06:05:57.857Z,14.14
2017-03-24T06:07:06.710Z,14.17
2017-03-24T06:08:15.572Z,14.2
2017-03-24T06:09:24.430Z,14.2
2017-03-24T06:10:33.336Z,14.65
2017-03-24T06:11:42.200Z,15
2017-03-24T06:12:51.068Z,15.05
2017-03-24T06:13:59.928Z,15.08
2017-03-24T06:15:08.792Z,15.23
2017-03-24T06:16:17.656Z,15.26
2017-03-24T06:17:26.507Z,15.41
2017-03-24T06:18:35.685Z,15.46
2017-03-24T06:19:44.550Z,15.42
2017-03-24T06:20:53.408Z,15.56
2017-03-24T06:22:02.260Z,15.64
2017-03-24T06:23:11.124Z,15.61
2017-03-24T06:24:19.989Z,15.73
2017-03-24T06:25:28.857Z,15.73
2017-03-24T06:26:37.718Z,15.74
2017-03-24T06:27:46.588Z,15.89
2017-03-24T06:28:55.457Z,15.91
2017-03-24T06:30:04.319Z,15.94
2017-03-24T06:31:13.175Z,16.01
2017-03-24T06:32:22.033Z,16.15
2017-03-24T06:33:31.217Z,16.01
2017-03-24T06:34:40.079Z,15.85
2017-03-24T06:35:48.936Z,15.7
2017-03-24T06:36:57.792Z,15.64
2017-03-24T06:38:06.650Z,15.82
2017-03-24T06:39:15.506Z,15.89
2017-03-24T06:40:24.372Z,16.04
2017-03-24T06:41:33.224Z,16.01
2017-03-24T06:42:42.090Z,16.07
2017-03-24T06:43:50.963Z,16.14
2017-03-24T06:44:59.857Z,16.23
2017-03-24T06:46:08.712Z,16.26
2017-03-24T06:47:17.571Z,16.32
2017-03-24T06:48:26.425Z,16.34
2017-03-24T06:49:35.286Z,16.37
2017-03-24T06:50:44.145Z,16.34
2017-03-24T06:51:53.318Z,16.44
2017-03-24T06:53:02.186Z,16.4
2017-03-24T06:54:11.050Z,16.4
2017-03-24T06:55:19.912Z,16.42
2017-03-24T06:56:28.768Z,16.42
2017-03-24T06:57:37.625Z,16.44
2017-03-24T06:58:46.491Z,16.42
2017-03-24T06:59:55.670Z,16.47
2017-03-24T07:01:04.539Z,16.45
2017-03-24T07:02:13.396Z,16.42
2017-03-24T07:03:22.261Z,16.47
2017-03-24T07:04:31.136Z,16.45
2017-03-24T07:05:40.034Z,16.56
2017-03-24T07:06:48.893Z,16.45
2017-03-24T07:07:58.154Z,16.63
2017-03-24T07:09:07.340Z,16.65
2017-03-24T07:10:16.208Z,16.65
2017-03-24T07:11:25.062Z,16.59
2017-03-24T07:12:33.921Z,16.66
2017-03-24T07:13:42.784Z,16.59
2017-03-24T07:14:51.652Z,16.65
2017-03-24T07:16:00.516Z,16.66
2017-03-24T07:17:09.377Z,16.73
2017-03-24T07:18:18.235Z,16.69
2017-03-24T07:19:27.106Z,16.85
2017-03-24T07:20:35.977Z,16.75
2017-03-24T07:21:44.831Z,16.74
2017-03-24T07:22:53.686Z,16.78
2017-03-24T07:24:02.558Z,16.69
2017-03-24T07:25:11.415Z,16.8
2017-03-24T07:26:20.273Z,16.84
2017-03-24T07:27:29.134Z,16.84
2017-03-24T07:28:38.000Z,16.93
2017-03-24T07:29:46.872Z,16.9
2017-03-24T07:30:55.734Z,16.98
2017-03-24T07:32:04.590Z,16.93
2017-03-24T07:33:13.450Z,16.96
2017-03-24T07:34:22.312Z,17.03
2017-03-24T07:35:31.216Z,16.98
2017-03-24T07:36:40.075Z,17.13
2017-03-24T07:37:48.936Z,17.02
2017-03-24T07:38:58.115Z,16.99
2017-03-24T07:40:07.006Z,17.03
2017-03-24T07:41:15.863Z,17.1
2017-03-24T07:42:24.730Z,17.02
2017-03-24T07:43:33.590Z,17.15
2017-03-24T07:44:42.460Z,17.14
2017-03-24T07:45:51.323Z,17.17
2017-03-24T07:47:00.194Z,17.15
2017-03-24T07:48:09.051Z,17.14
2017-03-24T07:49:17.909Z,17.21
2017-03-24T07:50:26.783Z,17.24
2017-03-24T07:51:35.644Z,17.24
2017-03-24T07:52:44.518Z,17.23
2017-03-24T07:53:53.389Z,17.26
2017-03-24T07:55:02.306Z,17.2
2017-03-24T07:56:11.171Z,17.29
2017-03-24T07:57:20.038Z,17.33
2017-03-24T07:58:28.902Z,17.36
2017-03-24T07:59:37.758Z,17.33
2017-03-24T08:00:46.614Z,17.38
2017-03-24T08:01:55.468Z,17.29
2017-03-24T08:03:04.324Z,17.4
2017-03-24T08:04:13.176Z,17.38
2017-03-24T08:05:22.035Z,17.38
2017-03-24T08:06:30.895Z,17.42
2017-03-24T08:07:40.072Z,17.42
2017-03-24T08:08:48.930Z,17.47
2017-03-24T08:09:58.102Z,17.45
2017-03-24T08:11:06.990Z,17.44
2017-03-24T08:12:15.852Z,17.48
2017-03-24T08:13:24.704Z,17.48
2017-03-24T08:14:33.554Z,17.53
2017-03-24T08:15:42.407Z,17.54
2017-03-24T08:16:51.257Z,17.55
2017-03-24T08:18:00.116Z,17.54
2017-03-24T08:19:08.969Z,17.53
2017-03-24T08:20:17.823Z,17.54
2017-03-24T08:21:26.680Z,17.53
2017-03-24T08:22:35.848Z,17.66
2017-03-24T08:23:44.710Z,17.58
2017-03-24T08:24:53.558Z,17.62
2017-03-24T08:26:02.727Z,17.64
2017-03-24T08:27:11.582Z,17.62
2017-03-24T08:28:20.449Z,17.66
2017-03-24T08:29:29.306Z,17.64
2017-03-24T08:30:38.161Z,17.67
2017-03-24T08:31:47.013Z,17.77
2017-03-24T08:32:55.881Z,17.74
2017-03-24T08:34:04.742Z,17.85
2017-03-24T08:35:13.913Z,17.73
2017-03-24T08:36:22.761Z,17.82
2017-03-24T08:37:31.618Z,17.82
2017-03-24T08:38:40.469Z,17.79
2017-03-24T08:39:49.323Z,17.76
2017-03-24T08:40:58.182Z,17.77
2017-03-24T08:42:07.194Z,17.84
2017-03-24T08:43:16.051Z,17.86
2017-03-24T08:44:24.911Z,17.85
2017-03-24T08:45:33.769Z,17.82
2017-03-24T08:46:42.625Z,17.8
2017-03-24T08:47:51.495Z,17.85
2017-03-24T08:49:00.344Z,17.89
2017-03-24T08:50:09.194Z,17.82
2017-03-24T08:51:18.057Z,17.89
2017-03-24T08:52:26.910Z,17.84
2017-03-24T08:53:35.767Z,17.89
2017-03-24T08:54:44.621Z,17.84
2017-03-24T08:55:53.470Z,17.84
2017-03-24T08:57:02.330Z,17.94
2017-03-24T08:58:11.192Z,17.79
2017-03-24T08:59:20.062Z,17.8
2017-03-24T09:00:28.918Z,17.82
2017-03-24T09:01:37.778Z,17.96
2017-03-24T09:02:46.633Z,17.91
2017-03-24T09:03:55.497Z,17.92
2017-03-24T09:05:04.359Z,17.98
2017-03-24T09:06:13.226Z,17.91
2017-03-24T09:07:22.083Z,17.85
2017-03-24T09:08:30.941Z,17.77
2017-03-24T09:09:40.129Z,17.73
2017-03-24T09:10:49.024Z,17.76
2017-03-24T09:11:57.875Z,17.73
2017-03-24T09:13:06.732Z,17.82
2017-03-24T09:14:15.638Z,17.64
2017-03-24T09:15:24.490Z,17.79
2017-03-24T09:16:33.373Z,17.64
2017-03-24T09:17:42.228Z,17.64
2017-03-24T09:18:51.077Z,17.6
2017-03-24T09:19:59.933Z,17.6
2017-03-24T09:21:08.798Z,17.55
2017-03-24T09:22:17.655Z,17.58
2017-03-24T09:23:26.508Z,17.55
2017-03-24T09:24:35.356Z,17.47
2017-03-24T09:25:44.211Z,17.45
2017-03-24T09:26:53.085Z,17.45
2017-03-24T09:28:01.938Z,17.54
2017-03-24T09:29:10.791Z,17.44
2017-03-24T09:30:19.656Z,17.55
2017-03-24T09:31:28.526Z,17.51
2017-03-24T09:32:37.700Z,17.51
2017-03-24T09:33:46.554Z,17.48
2017-03-24T09:34:55.412Z,17.45
2017-03-24T09:36:04.270Z,17.4
2017-03-24T09:37:13.129Z,17.42
2017-03-24T09:38:21.993Z,17.47
2017-03-24T09:39:30.844Z,17.48
2017-03-24T09:40:39.695Z,17.4
2017-03-24T09:41:48.557Z,17.38
2017-03-24T09:42:57.420Z,17.21
2017-03-24T09:44:06.294Z,17.24
2017-03-24T09:45:15.148Z,17.26
2017-03-24T09:46:24.003Z,17.26
2017-03-24T09:47:32.858Z,17.44
2017-03-24T09:48:41.705Z,17.44
2017-03-24T09:49:50.565Z,17.4
2017-03-24T09:50:59.418Z,17.26
2017-03-24T09:52:08.280Z,17.21
2017-03-24T09:53:17.136Z,17.33
2017-03-24T09:54:25.984Z,17.38
2017-03-24T09:55:34.837Z,17.35
2017-03-24T09:56:43.696Z,17.32
2017-03-24T09:57:52.558Z,17.33
2017-03-24T09:59:01.409Z,17.24
2017-03-24T10:00:10.581Z,17.06
2017-03-24T10:01:19.439Z,17.08
2017-03-24T10:02:28.294Z,16.98
2017-03-24T10:03:37.152Z,16.98
2017-03-24T10:04:46.010Z,16.8
2017-03-24T10:05:54.906Z,16.71
2017-03-24T10:07:03.762Z,16.6
2017-03-24T10:08:12.610Z,16.47
2017-03-24T10:09:21.467Z,16.48
2017-03-24T10:10:30.352Z,16.45
2017-03-24T10:11:39.206Z,16.48
2017-03-24T10:12:48.064Z,16.4
2017-03-24T10:13:56.922Z,16.38
2017-03-24T10:15:05.768Z,16.38
2017-03-24T10:16:14.622Z,16.5
2017-03-24T10:17:23.481Z,16.45
2017-03-24T10:18:32.334Z,16.4
2017-03-24T10:19:41.191Z,16.53
2017-03-24T10:20:50.054Z,16.48
2017-03-24T10:21:58.912Z,16.44
2017-03-24T10:23:07.775Z,16.44
2017-03-24T10:24:16.652Z,16.5
2017-03-24T10:25:25.501Z,16.56
2017-03-24T10:26:34.370Z,16.56
2017-03-24T10:27:43.226Z,16.41
2017-03-24T10:28:52.084Z,16.42
2017-03-24T10:30:00.944Z,16.42
2017-03-24T10:31:09.802Z,16.53
2017-03-24T10:32:18.657Z,16.56
2017-03-24T10:33:27.517Z,16.63
2017-03-24T10:34:36.377Z,16.62
2017-03-24T10:35:45.234Z,16.77
2017-03-24T10:36:54.097Z,16.8
2017-03-24T10:38:02.994Z,16.74
2017-03-24T10:39:11.853Z,16.81
2017-03-24T10:40:20.708Z,16.84
2017-03-24T10:41:29.763Z,16.73
2017-03-24T10:42:38.773Z,16.69
2017-03-24T10:43:47.626Z,16.65
2017-03-24T10:44:56.475Z,16.75
2017-03-24T10:46:05.322Z,16.67
2017-03-24T10:47:14.174Z,16.74
2017-03-24T10:48:23.025Z,16.74
2017-03-24T10:49:31.878Z,16.69
2017-03-24T10:50:40.731Z,16.69
2017-03-24T10:51:49.588Z,16.63
2017-03-24T10:52:58.449Z,16.52
2017-03-24T10:54:07.305Z,16.48
2017-03-24T10:55:16.160Z,16.44
2017-03-24T10:56:25.015Z,16.55
2017-03-24T10:57:33.872Z,16.47
2017-03-24T10:58:42.722Z,16.4
2017-03-24T10:59:51.590Z,16.42
2017-03-24T11:01:00.444Z,16.41
2017-03-24T11:02:09.297Z,16.47
2017-03-24T11:03:18.146Z,16.38
2017-03-24T11:04:27.005Z,16.41
2017-03-24T11:05:35.856Z,16.42
2017-03-24T11:06:44.716Z,16.44
2017-03-24T11:07:53.701Z,16.58
2017-03-24T11:09:02.555Z,16.58
2017-03-24T11:10:11.404Z,16.6
2017-03-24T11:11:20.264Z,16.59
2017-03-24T11:12:29.128Z,16.48
2017-03-24T11:13:37.989Z,16.47
2017-03-24T11:14:46.845Z,16.58
2017-03-24T11:15:55.705Z,16.6
2017-03-24T11:17:04.560Z,16.5
2017-03-24T11:18:13.433Z,16.48
2017-03-24T11:19:22.293Z,16.52
2017-03-24T11:20:31.156Z,16.45
2017-03-24T11:21:40.013Z,16.48
2017-03-24T11:22:48.872Z,16.45
2017-03-24T11:23:57.723Z,16.47
2017-03-24T11:25:06.584Z,16.6
2017-03-24T11:26:15.445Z,16.66
2017-03-24T11:27:24.299Z,16.67
2017-03-24T11:28:33.154Z,16.73
2017-03-24T11:29:42.006Z,16.74
2017-03-24T11:30:50.857Z,16.63
2017-03-24T11:31:59.719Z,16.63
2017-03-24T11:33:08.568Z,16.67
2017-03-24T11:34:17.420Z,16.71
2017-03-24T11:35:26.275Z,16.8
2017-03-24T11:36:35.129Z,16.75
2017-03-24T11:37:46.215Z,16.78
2017-03-24T11:38:55.071Z,16.92
2017-03-24T11:40:03.922Z,16.85
2017-03-24T11:41:12.781Z,16.85
2017-03-24T11:42:21.637Z,16.8
2017-03-24T11:43:30.489Z,16.81
2017-03-24T11:44:39.341Z,16.85
2017-03-24T11:45:48.197Z,16.71
2017-03-24T11:46:57.048Z,16.67
2017-03-24T11:48:05.905Z,16.73
2017-03-24T11:49:14.758Z,16.77
2017-03-24T11:50:23.643Z,16.77
2017-03-24T11:51:32.495Z,16.77
2017-03-24T11:52:41.685Z,16.78
2017-03-24T11:53:50.579Z,16.98
2017-03-24T11:54:59.435Z,17.06
2017-03-24T11:56:08.288Z,17.26
2017-03-24T11:57:17.150Z,17.29
2017-03-24T11:58:26.001Z,17.33
2017-03-24T11:59:34.852Z,17.45
2017-03-24T12:00:43.709Z,17.48
2017-03-24T12:01:52.567Z,17.55
2017-03-24T12:03:01.467Z,17.54
2017-03-24T12:04:10.323Z,17.57
2017-03-24T12:05:19.180Z,17.64
2017-03-24T12:06:28.358Z,17.79
2017-03-24T12:07:37.214Z,17.74
2017-03-24T12:08:46.077Z,17.82
2017-03-24T12:09:54.928Z,17.76
2017-03-24T12:11:03.793Z,17.76
2017-03-24T12:12:12.643Z,17.86
2017-03-24T12:13:21.492Z,17.79
2017-03-24T12:14:30.350Z,17.85
2017-03-24T12:15:39.206Z,17.95
2017-03-24T12:16:48.063Z,17.86
2017-03-24T12:17:56.914Z,17.96
2017-03-24T12:19:05.771Z,17.95
2017-03-24T12:20:14.953Z,17.96
2017-03-24T12:21:23.807Z,17.96
2017-03-24T12:22:32.659Z,17.96
2017-03-24T12:23:41.511Z,18.03
2017-03-24T12:24:50.376Z,18.04
2017-03-24T12:25:59.235Z,18.07
2017-03-24T12:27:08.112Z,18.07
2017-03-24T12:28:16.973Z,18.06
2017-03-24T12:29:25.827Z,18.16
2017-03-24T12:30:34.684Z,18.16
2017-03-24T12:31:43.544Z,18.22
2017-03-24T12:32:52.400Z,18.28
2017-03-24T12:34:01.255Z,18.19
2017-03-24T12:35:10.122Z,18.19
2017-03-24T12:36:18.991Z,18.22
2017-03-24T12:37:27.843Z,18.25
2017-03-24T12:38:36.700Z,18.29
2017-03-24T12:39:45.563Z,18.34
2017-03-24T12:40:54.417Z,18.34
2017-03-24T12:42:03.291Z,18.26
2017-03-24T12:43:12.471Z,18.4
2017-03-24T12:44:21.325Z,18.46
2017-03-24T12:45:30.186Z,18.44
2017-03-24T12:46:39.056Z,18.43
2017-03-24T12:47:47.925Z,18.4
2017-03-24T12:48:56.792Z,18.47
2017-03-24T12:50:05.649Z,18.46
2017-03-24T12:51:14.500Z,18.43
2017-03-24T12:52:23.363Z,18.5
2017-03-24T12:53:32.224Z,18.54
2017-03-24T12:54:41.079Z,18.59
2017-03-24T12:55:49.943Z,18.65
2017-03-24T12:56:58.814Z,18.66
2017-03-24T12:58:07.681Z,18.65
2017-03-24T12:59:16.536Z,18.66
2017-03-24T13:00:25.406Z,18.68
2017-03-24T13:01:34.265Z,18.68
2017-03-24T13:02:43.139Z,18.71
2017-03-24T13:03:51.995Z,18.76
2017-03-24T13:05:00.856Z,18.77
2017-03-24T13:06:10.043Z,18.76
2017-03-24T13:07:18.910Z,18.74
2017-03-24T13:08:27.761Z,18.76
2017-03-24T13:09:36.622Z,18.74
2017-03-24T13:10:45.478Z,18.81
2017-03-24T13:11:54.341Z,18.77
2017-03-24T13:13:03.200Z,18.86
2017-03-24T13:14:12.064Z,18.87
2017-03-24T13:15:20.925Z,18.87
2017-03-24T13:16:29.783Z,18.9
2017-03-24T13:17:38.635Z,18.86
2017-03-24T13:18:47.501Z,18.94
2017-03-24T13:19:56.364Z,18.95
2017-03-24T13:21:05.222Z,18.95
2017-03-24T13:22:14.078Z,19.05
2017-03-24T13:23:22.937Z,19.1
2017-03-24T13:24:31.810Z,19.14
2017-03-24T13:25:40.666Z,19.07
2017-03-24T13:26:49.523Z,19.06
2017-03-24T13:27:58.386Z,19.06
2017-03-24T13:29:07.241Z,18.99
2017-03-24T13:30:16.094Z,19.2
2017-03-24T13:31:24.969Z,19.15
2017-03-24T13:32:33.831Z,19.18
2017-03-24T13:33:42.689Z,19.21
2017-03-24T13:34:51.548Z,19.21
2017-03-24T13:36:00.403Z,19.17
2017-03-24T13:37:09.575Z,19.25
2017-03-24T13:38:18.430Z,19.25
2017-03-24T13:39:27.281Z,19.24
2017-03-24T13:40:36.143Z,19.27
2017-03-24T13:41:45.006Z,19.25
2017-03-24T13:42:53.861Z,19.33
2017-03-24T13:44:02.721Z,19.35
2017-03-24T13:45:11.904Z,19.21
2017-03-24T13:46:20.754Z,19.32
2017-03-24T13:47:29.620Z,19.3
2017-03-24T13:48:38.480Z,19.37
2017-03-24T13:49:47.337Z,19.36
2017-03-24T13:50:56.196Z,19.42
2017-03-24T13:52:05.062Z,19.45
2017-03-24T13:53:13.931Z,19.4
2017-03-24T13:54:22.792Z,19.45
2017-03-24T13:55:31.687Z,19.43
2017-03-24T13:56:40.554Z,19.46
2017-03-24T13:57:49.409Z,19.51
2017-03-24T13:58:58.271Z,19.47
2017-03-24T14:00:07.134Z,19.53
2017-03-24T14:01:15.998Z,19.43
2017-03-24T14:02:24.865Z,19.58
2017-03-24T14:03:33.722Z,19.6
2017-03-24T14:04:42.584Z,19.54
2017-03-24T14:05:51.460Z,19.54
2017-03-24T14:07:00.322Z,19.61
2017-03-24T14:08:09.194Z,19.6
2017-03-24T14:09:18.057Z,19.65
2017-03-24T14:10:26.906Z,19.58
2017-03-24T14:11:35.764Z,19.65
2017-03-24T14:12:44.625Z,19.64
2017-03-24T14:13:53.492Z,19.47
2017-03-24T14:15:02.390Z,19.1
2017-03-24T14:16:11.247Z,18.86
2017-03-24T14:17:20.108Z,18.62
2017-03-24T14:18:28.968Z,18.5
2017-03-24T14:19:37.825Z,18.29
2017-03-24T14:20:46.692Z,18.29
2017-03-24T14:21:55.550Z,18.26
2017-03-24T14:23:04.413Z,18.47
2017-03-24T14:24:13.307Z,18.71
2017-03-24T14:25:22.172Z,18.91
2017-03-24T14:26:31.027Z,19.06
2017-03-24T14:27:40.211Z,19.17
2017-03-24T14:28:49.066Z,19.22
2017-03-24T14:29:57.926Z,19.24
2017-03-24T14:31:06.841Z,19.33
2017-03-24T14:32:15.695Z,19.24
2017-03-24T14:33:24.558Z,19.35
2017-03-24T14:34:33.414Z,19.35
2017-03-24T14:35:42.272Z,19.36
2017-03-24T14:36:51.133Z,19.45
2017-03-24T14:38:00.005Z,19.42
2017-03-24T14:39:08.864Z,19.5
2017-03-24T14:40:17.728Z,19.5
2017-03-24T14:41:26.596Z,19.45
2017-03-24T14:42:35.454Z,19.5
2017-03-24T14:43:44.316Z,19.55
2017-03-24T14:44:53.211Z,19.55
2017-03-24T14:46:02.064Z,19.51
2017-03-24T14:47:10.929Z,19.54
2017-03-24T14:48:19.794Z,19.6
2017-03-24T14:49:28.659Z,19.57
2017-03-24T14:50:37.555Z,19.6